sensor_id;sensor_type;location;lat;lon;timestamp;P1;durP1;ratioP1;P2;durP2;ratioP2
10007;SDS011;5043;41.766;26.204;2022-12-07T00:01:30;29.40;;;14.50;;
10007;SDS011;5043;41.766;26.204;2022-12-07T00:03:58;27.52;;;15.13;;
10007;SDS011;5043;41.766;26.204;2022-12-07T00:06:30;40.97;;;17.15;;
10007;SDS011;5043;41.766;26.204;2022-12-07T00:08:59;31.47;;;15.73;;
10007;SDS011;5043;41.766;26.204;2022-12-07T00:11:25;26.73;;;15.43;;
10007;SDS011;5043;41.766;26.204;2022-12-07T00:13:52;25.05;;;14.30;;
10007;SDS011;5043;41.766;26.204;2022-12-07T00:16:19;39.10;;;17.27;;
10007;SDS011;5043;41.766;26.204;2022-12-07T00:18:46;37.17;;;16.77;;
10007;SDS011;5043;41.766;26.204;2022-12-07T00:21:15;33.47;;;15.63;;
10007;SDS011;5043;41.766;26.204;2022-12-07T00:23:44;34.40;;;16.23;;
10007;SDS011;5043;41.766;26.204;2022-12-07T00:26:15;29.90;;;16.20;;
10007;SDS011;5043;41.766;26.204;2022-12-07T00:28:46;27.53;;;15.53;;
10007;SDS011;5043;41.766;26.204;2022-12-07T00:31:14;24.00;;;14.17;;
10007;SDS011;5043;41.766;26.204;2022-12-07T00:33:40;25.43;;;13.70;;
10007;SDS011;5043;41.766;26.204;2022-12-07T00:36:07;33.88;;;13.38;;
10007;SDS011;5043;41.766;26.204;2022-12-07T00:38:47;34.10;;;17.03;;
10007;SDS011;5043;41.766;26.204;2022-12-07T00:41:13;35.92;;;16.77;;
10007;SDS011;5043;41.766;26.204;2022-12-07T00:43:41;33.47;;;13.20;;
10007;SDS011;5043;41.766;26.204;2022-12-07T00:46:08;27.07;;;13.03;;
10007;SDS011;5043;41.766;26.204;2022-12-07T00:48:33;23.47;;;13.07;;
10007;SDS011;5043;41.766;26.204;2022-12-07T00:50:59;31.00;;;15.37;;
10007;SDS011;5043;41.766;26.204;2022-12-07T00:53:25;34.77;;;14.80;;
10007;SDS011;5043;41.766;26.204;2022-12-07T00:55:51;33.40;;;16.47;;
10007;SDS011;5043;41.766;26.204;2022-12-07T00:58:17;34.23;;;16.60;;
10007;SDS011;5043;41.766;26.204;2022-12-07T01:00:44;35.72;;;15.48;;
10007;SDS011;5043;41.766;26.204;2022-12-07T01:03:10;37.80;;;16.20;;
10007;SDS011;5043;41.766;26.204;2022-12-07T01:05:37;37.13;;;15.67;;
10007;SDS011;5043;41.766;26.204;2022-12-07T01:08:03;26.27;;;14.75;;
10007;SDS011;5043;41.766;26.204;2022-12-07T01:10:29;24.47;;;13.10;;
10007;SDS011;5043;41.766;26.204;2022-12-07T01:12:55;26.02;;;12.70;;
10007;SDS011;5043;41.766;26.204;2022-12-07T01:15:21;22.80;;;11.40;;
10007;SDS011;5043;41.766;26.204;2022-12-07T01:17:47;20.08;;;10.98;;
10007;SDS011;5043;41.766;26.204;2022-12-07T01:20:12;15.60;;;9.98;;
10007;SDS011;5043;41.766;26.204;2022-12-07T01:22:38;17.83;;;10.57;;
10007;SDS011;5043;41.766;26.204;2022-12-07T01:25:05;18.07;;;10.00;;
10007;SDS011;5043;41.766;26.204;2022-12-07T01:27:32;18.00;;;9.70;;
10007;SDS011;5043;41.766;26.204;2022-12-07T01:29:58;16.80;;;9.13;;
10007;SDS011;5043;41.766;26.204;2022-12-07T01:32:24;14.17;;;9.43;;
10007;SDS011;5043;41.766;26.204;2022-12-07T01:34:49;20.38;;;10.95;;
10007;SDS011;5043;41.766;26.204;2022-12-07T01:37:14;13.85;;;9.80;;
10007;SDS011;5043;41.766;26.204;2022-12-07T01:39:40;15.47;;;9.40;;
10007;SDS011;5043;41.766;26.204;2022-12-07T01:42:09;14.93;;;9.20;;
10007;SDS011;5043;41.766;26.204;2022-12-07T01:47:40;16.90;;;9.30;;
10007;SDS011;5043;41.766;26.204;2022-12-07T01:50:06;17.43;;;9.67;;
10007;SDS011;5043;41.766;26.204;2022-12-07T01:52:33;16.27;;;10.77;;
10007;SDS011;5043;41.766;26.204;2022-12-07T01:55:02;16.73;;;11.02;;
10007;SDS011;5043;41.766;26.204;2022-12-07T01:57:30;13.15;;;9.48;;
10007;SDS011;5043;41.766;26.204;2022-12-07T01:59:59;14.47;;;9.87;;
10007;SDS011;5043;41.766;26.204;2022-12-07T02:02:27;15.85;;;10.10;;
10007;SDS011;5043;41.766;26.204;2022-12-07T02:04:59;15.83;;;9.70;;
10007;SDS011;5043;41.766;26.204;2022-12-07T02:07:26;17.37;;;9.90;;
10007;SDS011;5043;41.766;26.204;2022-12-07T02:09:53;16.87;;;10.23;;
10007;SDS011;5043;41.766;26.204;2022-12-07T02:12:19;21.58;;;9.93;;
10007;SDS011;5043;41.766;26.204;2022-12-07T02:14:46;21.93;;;9.63;;
10007;SDS011;5043;41.766;26.204;2022-12-07T02:17:17;19.07;;;9.87;;
10007;SDS011;5043;41.766;26.204;2022-12-07T02:28:19;27.23;;;15.93;;
10007;SDS011;5043;41.766;26.204;2022-12-07T02:30:47;23.15;;;12.38;;
10007;SDS011;5043;41.766;26.204;2022-12-07T02:38:31;20.60;;;11.82;;
10007;SDS011;5043;41.766;26.204;2022-12-07T02:43:39;11.67;;;7.50;;
10007;SDS011;5043;41.766;26.204;2022-12-07T02:46:11;9.15;;;6.40;;
10007;SDS011;5043;41.766;26.204;2022-12-07T02:48:41;10.30;;;6.78;;
10007;SDS011;5043;41.766;26.204;2022-12-07T02:51:09;13.40;;;7.57;;
10007;SDS011;5043;41.766;26.204;2022-12-07T02:53:41;16.65;;;8.43;;
10007;SDS011;5043;41.766;26.204;2022-12-07T02:56:13;18.47;;;10.90;;
10007;SDS011;5043;41.766;26.204;2022-12-07T02:58:50;17.47;;;9.63;;
10007;SDS011;5043;41.766;26.204;2022-12-07T03:04:25;21.67;;;10.20;;
10007;SDS011;5043;41.766;26.204;2022-12-07T03:15:35;18.43;;;10.27;;
10007;SDS011;5043;41.766;26.204;2022-12-07T03:18:15;19.23;;;11.00;;
10007;SDS011;5043;41.766;26.204;2022-12-07T03:20:44;26.00;;;11.38;;
10007;SDS011;5043;41.766;26.204;2022-12-07T03:23:14;23.67;;;11.40;;
10007;SDS011;5043;41.766;26.204;2022-12-07T03:25:47;21.60;;;11.00;;
10007;SDS011;5043;41.766;26.204;2022-12-07T03:28:18;24.20;;;11.97;;
10007;SDS011;5043;41.766;26.204;2022-12-07T03:33:22;25.30;;;11.13;;
10007;SDS011;5043;41.766;26.204;2022-12-07T03:36:01;22.67;;;11.33;;
10007;SDS011;5043;41.766;26.204;2022-12-07T03:38:40;29.50;;;12.80;;
10007;SDS011;5043;41.766;26.204;2022-12-07T03:43:48;20.60;;;11.55;;
10007;SDS011;5043;41.766;26.204;2022-12-07T03:46:18;22.30;;;10.80;;
10007;SDS011;5043;41.766;26.204;2022-12-07T03:52:00;24.87;;;12.13;;
10007;SDS011;5043;41.766;26.204;2022-12-07T03:57:19;19.60;;;10.53;;
10007;SDS011;5043;41.766;26.204;2022-12-07T03:59:47;19.45;;;10.68;;
10007;SDS011;5043;41.766;26.204;2022-12-07T04:02:13;18.35;;;10.98;;
10007;SDS011;5043;41.766;26.204;2022-12-07T04:04:40;16.80;;;10.07;;
10007;SDS011;5043;41.766;26.204;2022-12-07T04:07:08;19.97;;;10.77;;
10007;SDS011;5043;41.766;26.204;2022-12-07T04:09:34;22.87;;;11.33;;
10007;SDS011;5043;41.766;26.204;2022-12-07T04:11:59;23.25;;;11.75;;
10007;SDS011;5043;41.766;26.204;2022-12-07T04:14:24;24.63;;;12.37;;
10007;SDS011;5043;41.766;26.204;2022-12-07T04:16:51;25.80;;;12.23;;
10007;SDS011;5043;41.766;26.204;2022-12-07T04:19:25;24.37;;;12.20;;
10007;SDS011;5043;41.766;26.204;2022-12-07T04:21:52;21.60;;;11.87;;
10007;SDS011;5043;41.766;26.204;2022-12-07T04:24:17;26.83;;;13.00;;
10007;SDS011;5043;41.766;26.204;2022-12-07T04:26:44;19.40;;;11.60;;
10007;SDS011;5043;41.766;26.204;2022-12-07T04:29:11;27.05;;;12.18;;
10007;SDS011;5043;41.766;26.204;2022-12-07T04:31:37;27.80;;;12.63;;
10007;SDS011;5043;41.766;26.204;2022-12-07T04:34:02;25.13;;;12.57;;
10007;SDS011;5043;41.766;26.204;2022-12-07T04:36:29;27.77;;;13.20;;
10007;SDS011;5043;41.766;26.204;2022-12-07T04:38:55;28.33;;;14.83;;
10007;SDS011;5043;41.766;26.204;2022-12-07T04:41:21;26.43;;;15.33;;
10007;SDS011;5043;41.766;26.204;2022-12-07T04:44:01;33.03;;;17.23;;
10007;SDS011;5043;41.766;26.204;2022-12-07T04:46:29;32.27;;;17.57;;
10007;SDS011;5043;41.766;26.204;2022-12-07T04:48:56;32.47;;;17.80;;
10007;SDS011;5043;41.766;26.204;2022-12-07T04:51:24;30.50;;;18.43;;
10007;SDS011;5043;41.766;26.204;2022-12-07T04:53:51;34.13;;;21.20;;
10007;SDS011;5043;41.766;26.204;2022-12-07T04:56:18;33.13;;;19.27;;
10007;SDS011;5043;41.766;26.204;2022-12-07T04:58:44;36.35;;;19.20;;
10007;SDS011;5043;41.766;26.204;2022-12-07T05:01:11;30.02;;;16.75;;
10007;SDS011;5043;41.766;26.204;2022-12-07T05:03:38;26.90;;;16.43;;
10007;SDS011;5043;41.766;26.204;2022-12-07T05:06:05;24.57;;;14.53;;
10007;SDS011;5043;41.766;26.204;2022-12-07T05:08:31;32.90;;;14.27;;
10007;SDS011;5043;41.766;26.204;2022-12-07T05:10:58;27.63;;;15.25;;
10007;SDS011;5043;41.766;26.204;2022-12-07T05:13:24;29.30;;;15.30;;
10007;SDS011;5043;41.766;26.204;2022-12-07T05:15:49;25.25;;;14.95;;
10007;SDS011;5043;41.766;26.204;2022-12-07T05:18:15;32.42;;;15.55;;
10007;SDS011;5043;41.766;26.204;2022-12-07T05:20:41;25.37;;;13.93;;
10007;SDS011;5043;41.766;26.204;2022-12-07T05:23:07;45.88;;;16.33;;
10007;SDS011;5043;41.766;26.204;2022-12-07T05:25:33;34.80;;;16.03;;
10007;SDS011;5043;41.766;26.204;2022-12-07T05:27:59;33.93;;;17.70;;
10007;SDS011;5043;41.766;26.204;2022-12-07T05:30:25;28.33;;;15.85;;
10007;SDS011;5043;41.766;26.204;2022-12-07T05:32:51;43.73;;;17.73;;
10007;SDS011;5043;41.766;26.204;2022-12-07T05:35:17;38.60;;;18.10;;
10007;SDS011;5043;41.766;26.204;2022-12-07T05:37:43;43.22;;;20.05;;
10007;SDS011;5043;41.766;26.204;2022-12-07T05:40:09;53.05;;;23.15;;
10007;SDS011;5043;41.766;26.204;2022-12-07T05:42:35;55.28;;;23.13;;
10007;SDS011;5043;41.766;26.204;2022-12-07T05:45:00;62.40;;;27.65;;
10007;SDS011;5043;41.766;26.204;2022-12-07T05:47:26;58.45;;;26.50;;
10007;SDS011;5043;41.766;26.204;2022-12-07T05:49:51;57.15;;;25.50;;
10007;SDS011;5043;41.766;26.204;2022-12-07T05:52:17;61.42;;;25.58;;
10007;SDS011;5043;41.766;26.204;2022-12-07T05:54:42;62.47;;;25.80;;
10007;SDS011;5043;41.766;26.204;2022-12-07T05:57:08;61.90;;;24.60;;
10007;SDS011;5043;41.766;26.204;2022-12-07T05:59:33;77.93;;;31.13;;
10007;SDS011;5043;41.766;26.204;2022-12-07T06:02:03;95.63;;;48.42;;
10007;SDS011;5043;41.766;26.204;2022-12-07T06:04:35;77.93;;;34.35;;
10007;SDS011;5043;41.766;26.204;2022-12-07T06:07:05;95.25;;;34.38;;
10007;SDS011;5043;41.766;26.204;2022-12-07T06:09:31;91.13;;;32.25;;
10007;SDS011;5043;41.766;26.204;2022-12-07T06:11:57;92.28;;;31.63;;
10007;SDS011;5043;41.766;26.204;2022-12-07T06:14:42;86.70;;;29.92;;
10007;SDS011;5043;41.766;26.204;2022-12-07T06:17:07;81.85;;;31.08;;
10007;SDS011;5043;41.766;26.204;2022-12-07T06:19:33;90.87;;;36.83;;
10007;SDS011;5043;41.766;26.204;2022-12-07T06:21:58;93.55;;;35.42;;
10007;SDS011;5043;41.766;26.204;2022-12-07T06:24:24;109.22;;;41.83;;
10007;SDS011;5043;41.766;26.204;2022-12-07T06:26:50;137.20;;;50.65;;
10007;SDS011;5043;41.766;26.204;2022-12-07T06:29:16;102.88;;;39.97;;
10007;SDS011;5043;41.766;26.204;2022-12-07T06:31:42;90.85;;;35.67;;
10007;SDS011;5043;41.766;26.204;2022-12-07T06:34:11;88.03;;;31.52;;
10007;SDS011;5043;41.766;26.204;2022-12-07T06:36:38;65.18;;;25.02;;
10007;SDS011;5043;41.766;26.204;2022-12-07T06:39:04;66.70;;;27.40;;
10007;SDS011;5043;41.766;26.204;2022-12-07T06:41:31;61.22;;;24.45;;
10007;SDS011;5043;41.766;26.204;2022-12-07T06:43:56;62.38;;;26.67;;
10007;SDS011;5043;41.766;26.204;2022-12-07T06:46:22;85.60;;;30.20;;
10007;SDS011;5043;41.766;26.204;2022-12-07T06:48:48;90.22;;;31.30;;
10007;SDS011;5043;41.766;26.204;2022-12-07T06:51:14;70.07;;;29.80;;
10007;SDS011;5043;41.766;26.204;2022-12-07T06:53:39;70.95;;;28.33;;
10007;SDS011;5043;41.766;26.204;2022-12-07T06:56:05;58.13;;;23.67;;
10007;SDS011;5043;41.766;26.204;2022-12-07T06:58:30;50.87;;;21.80;;
10007;SDS011;5043;41.766;26.204;2022-12-07T07:00:56;70.17;;;24.47;;
10007;SDS011;5043;41.766;26.204;2022-12-07T07:03:22;54.63;;;21.90;;
10007;SDS011;5043;41.766;26.204;2022-12-07T07:05:47;58.67;;;23.60;;
10007;SDS011;5043;41.766;26.204;2022-12-07T07:08:13;69.75;;;25.35;;
10007;SDS011;5043;41.766;26.204;2022-12-07T07:10:40;83.60;;;28.40;;
10007;SDS011;5043;41.766;26.204;2022-12-07T07:13:06;77.43;;;27.55;;
10007;SDS011;5043;41.766;26.204;2022-12-07T07:15:32;90.25;;;29.05;;
10007;SDS011;5043;41.766;26.204;2022-12-07T07:17:58;87.57;;;30.20;;
10007;SDS011;5043;41.766;26.204;2022-12-07T07:20:24;82.18;;;28.95;;
10007;SDS011;5043;41.766;26.204;2022-12-07T07:22:49;98.55;;;34.72;;
10007;SDS011;5043;41.766;26.204;2022-12-07T07:25:15;100.88;;;36.22;;
10007;SDS011;5043;41.766;26.204;2022-12-07T07:27:40;111.32;;;38.03;;
10007;SDS011;5043;41.766;26.204;2022-12-07T07:30:06;100.38;;;36.17;;
10007;SDS011;5043;41.766;26.204;2022-12-07T07:32:32;104.35;;;35.35;;
10007;SDS011;5043;41.766;26.204;2022-12-07T07:34:57;110.63;;;37.83;;
10007;SDS011;5043;41.766;26.204;2022-12-07T07:37:23;89.30;;;31.30;;
10007;SDS011;5043;41.766;26.204;2022-12-07T07:39:48;101.20;;;35.35;;
10007;SDS011;5043;41.766;26.204;2022-12-07T07:42:14;94.95;;;33.15;;
10007;SDS011;5043;41.766;26.204;2022-12-07T07:44:40;85.15;;;31.63;;
10007;SDS011;5043;41.766;26.204;2022-12-07T07:47:05;92.85;;;34.80;;
10007;SDS011;5043;41.766;26.204;2022-12-07T07:49:31;100.93;;;37.22;;
10007;SDS011;5043;41.766;26.204;2022-12-07T07:51:56;110.68;;;38.47;;
10007;SDS011;5043;41.766;26.204;2022-12-07T07:54:22;94.97;;;35.55;;
10007;SDS011;5043;41.766;26.204;2022-12-07T07:56:47;98.10;;;33.92;;
10007;SDS011;5043;41.766;26.204;2022-12-07T07:59:12;88.47;;;34.67;;
10007;SDS011;5043;41.766;26.204;2022-12-07T08:01:39;88.03;;;32.08;;
10007;SDS011;5043;41.766;26.204;2022-12-07T08:04:05;84.40;;;34.67;;
10007;SDS011;5043;41.766;26.204;2022-12-07T08:06:30;75.07;;;31.58;;
10007;SDS011;5043;41.766;26.204;2022-12-07T08:08:55;88.78;;;35.85;;
10007;SDS011;5043;41.766;26.204;2022-12-07T08:11:23;91.20;;;36.13;;
10007;SDS011;5043;41.766;26.204;2022-12-07T08:13:49;87.65;;;36.35;;
10007;SDS011;5043;41.766;26.204;2022-12-07T08:16:15;79.72;;;35.97;;
10007;SDS011;5043;41.766;26.204;2022-12-07T08:18:40;74.93;;;35.85;;
10007;SDS011;5043;41.766;26.204;2022-12-07T08:21:08;61.13;;;32.10;;
10007;SDS011;5043;41.766;26.204;2022-12-07T08:23:36;63.85;;;30.23;;
10007;SDS011;5043;41.766;26.204;2022-12-07T08:26:05;61.35;;;30.95;;
10007;SDS011;5043;41.766;26.204;2022-12-07T08:28:33;67.72;;;32.35;;
10007;SDS011;5043;41.766;26.204;2022-12-07T08:30:59;61.28;;;31.27;;
10007;SDS011;5043;41.766;26.204;2022-12-07T08:33:26;68.97;;;35.83;;
10007;SDS011;5043;41.766;26.204;2022-12-07T08:35:52;66.75;;;32.55;;
10007;SDS011;5043;41.766;26.204;2022-12-07T08:38:17;63.05;;;29.90;;
10007;SDS011;5043;41.766;26.204;2022-12-07T08:40:43;66.55;;;33.63;;
10007;SDS011;5043;41.766;26.204;2022-12-07T08:43:09;65.03;;;31.92;;
10007;SDS011;5043;41.766;26.204;2022-12-07T08:45:34;60.38;;;30.08;;
10007;SDS011;5043;41.766;26.204;2022-12-07T08:48:10;53.22;;;27.73;;
10007;SDS011;5043;41.766;26.204;2022-12-07T08:50:39;52.15;;;27.42;;
10007;SDS011;5043;41.766;26.204;2022-12-07T08:53:05;53.63;;;28.38;;
10007;SDS011;5043;41.766;26.204;2022-12-07T08:55:31;48.20;;;27.50;;
10007;SDS011;5043;41.766;26.204;2022-12-07T08:57:59;50.38;;;27.63;;
10007;SDS011;5043;41.766;26.204;2022-12-07T09:00:25;49.35;;;27.52;;
10007;SDS011;5043;41.766;26.204;2022-12-07T09:02:52;51.58;;;26.85;;
10007;SDS011;5043;41.766;26.204;2022-12-07T09:05:18;57.67;;;28.98;;
10007;SDS011;5043;41.766;26.204;2022-12-07T09:07:45;54.05;;;30.05;;
10007;SDS011;5043;41.766;26.204;2022-12-07T09:10:12;55.85;;;30.17;;
10007;SDS011;5043;41.766;26.204;2022-12-07T09:12:38;54.20;;;29.02;;
10007;SDS011;5043;41.766;26.204;2022-12-07T09:15:03;56.97;;;29.88;;
10007;SDS011;5043;41.766;26.204;2022-12-07T09:17:31;55.73;;;30.93;;
10007;SDS011;5043;41.766;26.204;2022-12-07T09:19:58;59.50;;;31.55;;
10007;SDS011;5043;41.766;26.204;2022-12-07T09:22:27;58.40;;;32.17;;
10007;SDS011;5043;41.766;26.204;2022-12-07T09:24:54;64.72;;;34.47;;
10007;SDS011;5043;41.766;26.204;2022-12-07T09:27:19;63.00;;;32.72;;
10007;SDS011;5043;41.766;26.204;2022-12-07T09:29:45;61.28;;;32.33;;
10007;SDS011;5043;41.766;26.204;2022-12-07T09:32:10;65.05;;;34.28;;
10007;SDS011;5043;41.766;26.204;2022-12-07T09:34:36;58.95;;;31.48;;
10007;SDS011;5043;41.766;26.204;2022-12-07T09:37:01;58.05;;;31.55;;
10007;SDS011;5043;41.766;26.204;2022-12-07T09:39:28;62.05;;;32.90;;
10007;SDS011;5043;41.766;26.204;2022-12-07T09:41:54;66.53;;;34.50;;
10007;SDS011;5043;41.766;26.204;2022-12-07T09:44:23;77.43;;;38.20;;
10007;SDS011;5043;41.766;26.204;2022-12-07T09:46:50;61.63;;;33.13;;
10007;SDS011;5043;41.766;26.204;2022-12-07T09:49:18;54.55;;;29.67;;
10007;SDS011;5043;41.766;26.204;2022-12-07T09:51:46;51.75;;;28.88;;
10007;SDS011;5043;41.766;26.204;2022-12-07T09:54:13;89.72;;;48.90;;
10007;SDS011;5043;41.766;26.204;2022-12-07T09:56:40;58.65;;;33.40;;
10007;SDS011;5043;41.766;26.204;2022-12-07T09:59:09;46.47;;;27.33;;
10007;SDS011;5043;41.766;26.204;2022-12-07T10:01:42;41.25;;;23.58;;
10007;SDS011;5043;41.766;26.204;2022-12-07T10:04:12;43.85;;;25.25;;
10007;SDS011;5043;41.766;26.204;2022-12-07T10:06:44;37.80;;;23.77;;
10007;SDS011;5043;41.766;26.204;2022-12-07T10:09:11;35.72;;;22.20;;
10007;SDS011;5043;41.766;26.204;2022-12-07T10:14:40;38.40;;;22.25;;
10007;SDS011;5043;41.766;26.204;2022-12-07T10:18:01;40.90;;;22.15;;
10007;SDS011;5043;41.766;26.204;2022-12-07T10:20:26;43.38;;;25.63;;
10007;SDS011;5043;41.766;26.204;2022-12-07T10:23:05;49.10;;;27.30;;
10007;SDS011;5043;41.766;26.204;2022-12-07T10:25:38;44.38;;;27.00;;
10007;SDS011;5043;41.766;26.204;2022-12-07T10:30:50;53.53;;;30.58;;
10007;SDS011;5043;41.766;26.204;2022-12-07T10:33:35;56.42;;;29.80;;
10007;SDS011;5043;41.766;26.204;2022-12-07T10:36:26;54.13;;;30.17;;
10007;SDS011;5043;41.766;26.204;2022-12-07T10:39:02;51.30;;;30.77;;
10007;SDS011;5043;41.766;26.204;2022-12-07T10:41:35;61.63;;;32.47;;
10007;SDS011;5043;41.766;26.204;2022-12-07T10:44:25;55.92;;;32.53;;
10007;SDS011;5043;41.766;26.204;2022-12-07T10:47:12;61.55;;;33.60;;
10007;SDS011;5043;41.766;26.204;2022-12-07T10:58:30;64.60;;;35.35;;
10007;SDS011;5043;41.766;26.204;2022-12-07T11:01:11;60.38;;;35.85;;
10007;SDS011;5043;41.766;26.204;2022-12-07T11:03:48;51.08;;;30.55;;
10007;SDS011;5043;41.766;26.204;2022-12-07T11:06:33;43.03;;;27.42;;
10007;SDS011;5043;41.766;26.204;2022-12-07T11:14:36;37.13;;;23.65;;
10007;SDS011;5043;41.766;26.204;2022-12-07T11:28:18;41.53;;;22.25;;
10007;SDS011;5043;41.766;26.204;2022-12-07T11:38:57;29.52;;;19.77;;
10007;SDS011;5043;41.766;26.204;2022-12-07T11:41:35;25.27;;;18.50;;
10007;SDS011;5043;41.766;26.204;2022-12-07T11:44:08;23.38;;;17.23;;
10007;SDS011;5043;41.766;26.204;2022-12-07T11:49:21;23.60;;;18.25;;
10007;SDS011;5043;41.766;26.204;2022-12-07T11:52:02;21.38;;;16.58;;
10007;SDS011;5043;41.766;26.204;2022-12-07T11:54:35;18.27;;;14.90;;
10007;SDS011;5043;41.766;26.204;2022-12-07T11:57:09;21.05;;;14.98;;
10007;SDS011;5043;41.766;26.204;2022-12-07T11:59:45;17.90;;;14.38;;
10007;SDS011;5043;41.766;26.204;2022-12-07T12:02:22;19.92;;;14.95;;
10007;SDS011;5043;41.766;26.204;2022-12-07T12:05:16;22.50;;;16.33;;
10007;SDS011;5043;41.766;26.204;2022-12-07T12:07:42;21.58;;;14.57;;
10007;SDS011;5043;41.766;26.204;2022-12-07T12:10:16;25.75;;;16.60;;
10007;SDS011;5043;41.766;26.204;2022-12-07T12:20:31;24.42;;;18.33;;
10007;SDS011;5043;41.766;26.204;2022-12-07T12:23:12;24.13;;;17.45;;
10007;SDS011;5043;41.766;26.204;2022-12-07T12:25:46;25.02;;;18.33;;
10007;SDS011;5043;41.766;26.204;2022-12-07T12:28:19;22.23;;;15.52;;
10007;SDS011;5043;41.766;26.204;2022-12-07T12:31:09;20.92;;;16.38;;
10007;SDS011;5043;41.766;26.204;2022-12-07T12:34:00;22.75;;;18.15;;
10007;SDS011;5043;41.766;26.204;2022-12-07T12:44:01;18.15;;;13.70;;
10007;SDS011;5043;41.766;26.204;2022-12-07T12:46:54;25.15;;;14.60;;
10007;SDS011;5043;41.766;26.204;2022-12-07T12:54:23;20.05;;;15.10;;
10007;SDS011;5043;41.766;26.204;2022-12-07T12:59:31;22.42;;;16.70;;
10007;SDS011;5043;41.766;26.204;2022-12-07T13:26:20;25.10;;;16.63;;
10007;SDS011;5043;41.766;26.204;2022-12-07T13:31:44;24.45;;;17.73;;
10007;SDS011;5043;41.766;26.204;2022-12-07T13:37:02;21.73;;;18.13;;
10007;SDS011;5043;41.766;26.204;2022-12-07T13:39:44;27.67;;;18.52;;
10007;SDS011;5043;41.766;26.204;2022-12-07T13:44:51;27.30;;;18.98;;
10007;SDS011;5043;41.766;26.204;2022-12-07T13:50:00;29.48;;;19.98;;
10007;SDS011;5043;41.766;26.204;2022-12-07T13:52:30;32.58;;;21.23;;
10007;SDS011;5043;41.766;26.204;2022-12-07T13:57:39;25.63;;;22.05;;
10007;SDS011;5043;41.766;26.204;2022-12-07T14:00:13;28.50;;;22.58;;
10007;SDS011;5043;41.766;26.204;2022-12-07T14:02:59;31.73;;;24.33;;
10007;SDS011;5043;41.766;26.204;2022-12-07T14:05:40;26.58;;;20.02;;
10007;SDS011;5043;41.766;26.204;2022-12-07T14:16:02;28.70;;;19.83;;
10007;SDS011;5043;41.766;26.204;2022-12-07T14:18:38;27.83;;;20.80;;
10007;SDS011;5043;41.766;26.204;2022-12-07T14:21:18;28.15;;;21.98;;
10007;SDS011;5043;41.766;26.204;2022-12-07T14:26:37;29.25;;;22.00;;
10007;SDS011;5043;41.766;26.204;2022-12-07T14:31:53;48.17;;;30.55;;
10007;SDS011;5043;41.766;26.204;2022-12-07T14:34:21;63.55;;;35.80;;
10007;SDS011;5043;41.766;26.204;2022-12-07T14:36:47;52.47;;;35.17;;
10007;SDS011;5043;41.766;26.204;2022-12-07T14:39:12;52.30;;;34.50;;
10007;SDS011;5043;41.766;26.204;2022-12-07T14:41:39;56.92;;;37.85;;
10007;SDS011;5043;41.766;26.204;2022-12-07T14:44:21;49.35;;;32.58;;
10007;SDS011;5043;41.766;26.204;2022-12-07T14:46:48;42.75;;;29.90;;
10007;SDS011;5043;41.766;26.204;2022-12-07T14:49:15;40.42;;;29.25;;
10007;SDS011;5043;41.766;26.204;2022-12-07T14:51:41;36.95;;;26.98;;
10007;SDS011;5043;41.766;26.204;2022-12-07T14:54:16;33.90;;;22.45;;
10007;SDS011;5043;41.766;26.204;2022-12-07T14:56:45;37.13;;;22.75;;
10007;SDS011;5043;41.766;26.204;2022-12-07T14:59:15;39.28;;;25.42;;
10007;SDS011;5043;41.766;26.204;2022-12-07T15:01:41;35.97;;;24.30;;
10007;SDS011;5043;41.766;26.204;2022-12-07T15:04:07;32.70;;;25.48;;
10007;SDS011;5043;41.766;26.204;2022-12-07T15:06:33;38.70;;;26.45;;
10007;SDS011;5043;41.766;26.204;2022-12-07T15:09:04;41.00;;;27.92;;
10007;SDS011;5043;41.766;26.204;2022-12-07T15:11:30;38.92;;;25.40;;
10007;SDS011;5043;41.766;26.204;2022-12-07T15:13:56;32.75;;;23.23;;
10007;SDS011;5043;41.766;26.204;2022-12-07T15:16:35;31.90;;;23.70;;
10007;SDS011;5043;41.766;26.204;2022-12-07T15:19:05;35.13;;;25.25;;
10007;SDS011;5043;41.766;26.204;2022-12-07T15:21:31;42.75;;;32.80;;
10007;SDS011;5043;41.766;26.204;2022-12-07T15:23:56;38.65;;;28.15;;
10007;SDS011;5043;41.766;26.204;2022-12-07T15:26:25;34.65;;;25.25;;
10007;SDS011;5043;41.766;26.204;2022-12-07T15:28:52;34.42;;;23.70;;
10007;SDS011;5043;41.766;26.204;2022-12-07T15:31:18;33.15;;;25.45;;
10007;SDS011;5043;41.766;26.204;2022-12-07T15:33:44;46.58;;;34.17;;
10007;SDS011;5043;41.766;26.204;2022-12-07T15:36:16;44.30;;;30.33;;
10007;SDS011;5043;41.766;26.204;2022-12-07T15:38:45;38.03;;;29.33;;
10007;SDS011;5043;41.766;26.204;2022-12-07T15:41:11;99.40;;;75.32;;
10007;SDS011;5043;41.766;26.204;2022-12-07T15:43:37;112.45;;;86.80;;
10007;SDS011;5043;41.766;26.204;2022-12-07T15:46:20;96.13;;;73.10;;
10007;SDS011;5043;41.766;26.204;2022-12-07T15:48:46;61.70;;;46.60;;
10007;SDS011;5043;41.766;26.204;2022-12-07T15:51:11;65.57;;;49.05;;
10007;SDS011;5043;41.766;26.204;2022-12-07T15:53:37;50.92;;;36.67;;
10007;SDS011;5043;41.766;26.204;2022-12-07T15:56:06;51.25;;;41.13;;
10007;SDS011;5043;41.766;26.204;2022-12-07T15:58:34;50.78;;;39.67;;
10007;SDS011;5043;41.766;26.204;2022-12-07T16:01:00;63.08;;;42.38;;
10007;SDS011;5043;41.766;26.204;2022-12-07T16:03:44;68.50;;;45.88;;
10007;SDS011;5043;41.766;26.204;2022-12-07T16:06:11;77.93;;;52.03;;
10007;SDS011;5043;41.766;26.204;2022-12-07T16:08:37;90.07;;;64.85;;
10007;SDS011;5043;41.766;26.204;2022-12-07T16:11:07;108.28;;;70.07;;
10007;SDS011;5043;41.766;26.204;2022-12-07T16:13:33;124.85;;;74.95;;
10007;SDS011;5043;41.766;26.204;2022-12-07T16:16:02;104.13;;;64.75;;
10007;SDS011;5043;41.766;26.204;2022-12-07T16:18:32;75.60;;;48.47;;
10007;SDS011;5043;41.766;26.204;2022-12-07T16:20:58;67.80;;;47.40;;
10007;SDS011;5043;41.766;26.204;2022-12-07T16:23:23;69.55;;;44.85;;
10007;SDS011;5043;41.766;26.204;2022-12-07T16:25:49;63.08;;;41.08;;
10007;SDS011;5043;41.766;26.204;2022-12-07T16:28:15;52.70;;;36.15;;
10007;SDS011;5043;41.766;26.204;2022-12-07T16:30:40;45.97;;;30.42;;
10007;SDS011;5043;41.766;26.204;2022-12-07T16:33:06;47.08;;;31.58;;
10007;SDS011;5043;41.766;26.204;2022-12-07T16:35:32;51.50;;;33.22;;
10007;SDS011;5043;41.766;26.204;2022-12-07T16:37:57;48.97;;;33.60;;
10007;SDS011;5043;41.766;26.204;2022-12-07T16:40:24;58.50;;;36.33;;
10007;SDS011;5043;41.766;26.204;2022-12-07T16:42:50;62.33;;;39.03;;
10007;SDS011;5043;41.766;26.204;2022-12-07T16:45:17;70.72;;;40.65;;
10007;SDS011;5043;41.766;26.204;2022-12-07T16:47:43;81.18;;;52.22;;
10007;SDS011;5043;41.766;26.204;2022-12-07T16:50:11;72.47;;;47.40;;
10007;SDS011;5043;41.766;26.204;2022-12-07T16:52:36;72.32;;;46.85;;
10007;SDS011;5043;41.766;26.204;2022-12-07T16:55:02;67.80;;;47.58;;
10007;SDS011;5043;41.766;26.204;2022-12-07T16:57:29;76.32;;;51.90;;
10007;SDS011;5043;41.766;26.204;2022-12-07T16:59:57;71.38;;;50.42;;
10007;SDS011;5043;41.766;26.204;2022-12-07T17:02:23;100.30;;;68.75;;
10007;SDS011;5043;41.766;26.204;2022-12-07T17:04:50;106.93;;;75.65;;
10007;SDS011;5043;41.766;26.204;2022-12-07T17:07:16;115.50;;;79.28;;
10007;SDS011;5043;41.766;26.204;2022-12-07T17:09:41;120.90;;;81.03;;